createdAt,value
2023-06-24T00:01:33.055Z,19.41
2023-06-24T00:04:00.017Z,19.39
2023-06-24T00:06:27.436Z,19.38
2023-06-24T00:09:01.501Z,19.30
2023-06-24T00:11:31.840Z,19.31
2023-06-24T00:13:58.941Z,19.24
2023-06-24T00:16:28.768Z,19.25
2023-06-24T00:19:02.735Z,19.19
2023-06-24T00:21:31.090Z,19.13
2023-06-24T00:23:59.074Z,19.14
2023-06-24T00:26:26.714Z,19.21
2023-06-24T00:28:53.544Z,19.23
2023-06-24T00:31:21.439Z,19.19
2023-06-24T00:33:50.848Z,19.19
2023-06-24T00:36:18.079Z,19.06
2023-06-24T00:38:45.233Z,19.04
2023-06-24T00:41:12.407Z,19.11
2023-06-24T00:43:40.583Z,19.11
2023-06-24T00:46:07.928Z,19.00
2023-06-24T00:48:34.953Z,19.04
2023-06-24T00:51:01.968Z,19.02
2023-06-24T00:53:28.926Z,18.98
2023-06-24T00:55:57.280Z,19.03
2023-06-24T00:58:24.228Z,19.04
2023-06-24T01:00:58.529Z,19.02
2023-06-24T01:03:29.347Z,18.92
2023-06-24T01:05:56.523Z,18.95
2023-06-24T01:08:26.510Z,18.98
2023-06-24T01:10:53.747Z,18.97
2023-06-24T01:13:21.136Z,18.97
2023-06-24T01:15:48.709Z,18.98
2023-06-24T01:18:31.435Z,18.94
2023-06-24T01:21:05.003Z,18.88
2023-06-24T01:23:44.060Z,18.86
2023-06-24T01:26:44.074Z,18.89
2023-06-24T01:29:51.663Z,18.86
2023-06-24T01:32:49.625Z,18.82
2023-06-24T01:35:18.611Z,18.82
2023-06-24T01:37:54.919Z,18.73
2023-06-24T01:40:38.364Z,18.67
2023-06-24T01:43:07.822Z,18.66
2023-06-24T01:45:38.483Z,18.61
2023-06-24T01:48:33.955Z,18.60
2023-06-24T01:51:03.033Z,18.56
2023-06-24T01:53:30.349Z,18.55
2023-06-24T01:55:59.214Z,18.48
2023-06-24T01:58:26.028Z,18.45
2023-06-24T02:00:53.741Z,18.45
2023-06-24T02:03:21.549Z,18.40
2023-06-24T02:05:48.897Z,18.36
2023-06-24T02:08:16.369Z,18.30
2023-06-24T02:10:43.873Z,18.28
2023-06-24T02:13:11.508Z,18.22
2023-06-24T02:15:39.865Z,18.29
2023-06-24T02:18:08.123Z,18.28
2023-06-24T02:20:35.512Z,18.26
2023-06-24T02:23:02.853Z,18.20
2023-06-24T02:25:29.796Z,18.21
2023-06-24T02:27:58.672Z,18.16
2023-06-24T02:30:26.133Z,18.16
2023-06-24T02:32:56.508Z,18.16
2023-06-24T02:35:23.326Z,18.09
2023-06-24T02:37:50.284Z,18.11
2023-06-24T02:40:17.325Z,18.08
2023-06-24T02:42:44.277Z,18.05
2023-06-24T02:45:11.590Z,18.06
2023-06-24T02:47:39.374Z,18.01
2023-06-24T02:50:07.803Z,17.98
2023-06-24T02:52:38.114Z,17.97
2023-06-24T02:55:08.425Z,17.92
2023-06-24T02:57:51.753Z,17.99
2023-06-24T03:00:38.499Z,17.92
2023-06-24T03:03:22.783Z,17.90
2023-06-24T03:05:55.036Z,17.87
2023-06-24T03:08:22.957Z,17.82
2023-06-24T03:10:55.617Z,17.84
2023-06-24T03:13:24.628Z,17.80
2023-06-24T03:15:58.261Z,17.77
2023-06-24T03:18:25.618Z,17.74
2023-06-24T03:20:54.207Z,17.69
2023-06-24T03:23:24.641Z,17.70
2023-06-24T03:25:52.001Z,17.66
2023-06-24T03:28:18.809Z,17.73
2023-06-24T03:30:51.191Z,17.62
2023-06-24T03:33:20.471Z,17.65
2023-06-24T03:35:48.695Z,17.59
2023-06-24T03:38:19.629Z,17.63
2023-06-24T03:40:47.971Z,17.65
2023-06-24T03:43:15.292Z,17.67
2023-06-24T03:45:42.316Z,17.66
2023-06-24T03:48:09.215Z,17.61
2023-06-24T03:50:36.067Z,17.52
2023-06-24T03:53:04.215Z,17.55
2023-06-24T03:55:31.522Z,17.57
2023-06-24T03:57:59.597Z,17.66
2023-06-24T04:00:27.553Z,17.64
2023-06-24T04:02:54.731Z,17.49
2023-06-24T04:05:22.989Z,17.54
2023-06-24T04:07:52.139Z,17.51
2023-06-24T04:10:19.729Z,17.56
2023-06-24T04:12:47.227Z,17.54
2023-06-24T04:15:14.954Z,17.46
2023-06-24T04:17:42.109Z,17.45
2023-06-24T04:20:12.275Z,17.51
2023-06-24T04:22:41.498Z,17.51
2023-06-24T04:25:08.889Z,17.46
2023-06-24T04:27:36.926Z,17.41
2023-06-24T04:30:06.083Z,17.53
2023-06-24T04:32:32.971Z,17.55
2023-06-24T04:35:04.094Z,17.51
2023-06-24T04:37:30.938Z,17.50
2023-06-24T04:39:58.715Z,17.56
2023-06-24T04:42:25.720Z,17.64
2023-06-24T04:44:52.634Z,17.55
2023-06-24T04:47:19.948Z,17.66
2023-06-24T04:49:46.943Z,17.42
2023-06-24T04:52:13.856Z,17.47
2023-06-24T04:54:40.826Z,17.40
2023-06-24T04:57:10.914Z,17.58
2023-06-24T04:59:39.519Z,17.59
2023-06-24T05:02:06.962Z,17.48
2023-06-24T05:04:34.132Z,17.56
2023-06-24T05:07:01.165Z,17.46
2023-06-24T05:09:28.105Z,17.59
2023-06-24T05:11:55.027Z,17.57
2023-06-24T05:14:21.768Z,17.68
2023-06-24T05:16:48.820Z,17.73
2023-06-24T05:19:16.214Z,17.69
2023-06-24T05:21:43.295Z,17.63
2023-06-24T05:24:10.111Z,17.76
2023-06-24T05:26:37.064Z,17.64
2023-06-24T05:29:04.724Z,17.78
2023-06-24T05:31:31.645Z,17.43
2023-06-24T05:33:58.454Z,17.57
2023-06-24T05:36:25.506Z,17.58
2023-06-24T05:38:52.605Z,17.63
2023-06-24T05:41:19.403Z,17.81
2023-06-24T05:43:46.479Z,17.90
2023-06-24T05:46:13.522Z,17.78
2023-06-24T05:48:40.756Z,17.74
2023-06-24T05:51:07.661Z,17.75
2023-06-24T05:53:34.544Z,17.96
2023-06-24T05:56:01.411Z,18.01
2023-06-24T05:58:28.301Z,18.01
2023-06-24T06:00:56.607Z,18.19
2023-06-24T06:03:23.559Z,18.39
2023-06-24T06:05:50.362Z,18.56
2023-06-24T06:08:17.334Z,18.53
2023-06-24T06:10:44.258Z,18.75
2023-06-24T06:13:11.132Z,18.85
2023-06-24T06:15:38.313Z,18.81
2023-06-24T06:18:05.418Z,18.75
2023-06-24T06:20:32.364Z,19.00
2023-06-24T06:22:59.430Z,19.25
2023-06-24T06:25:27.611Z,19.44
2023-06-24T06:27:54.412Z,19.48
2023-06-24T06:30:21.897Z,19.50
2023-06-24T06:32:48.715Z,19.58
2023-06-24T06:35:15.595Z,19.75
2023-06-24T06:37:42.539Z,20.06
2023-06-24T06:40:09.816Z,19.97
2023-06-24T06:42:36.966Z,20.14
2023-06-24T06:45:05.053Z,20.22
2023-06-24T06:47:32.170Z,20.44
2023-06-24T06:49:58.999Z,20.52
2023-06-24T06:52:25.876Z,20.71
2023-06-24T06:54:52.873Z,20.86
2023-06-24T06:57:19.760Z,20.86
2023-06-24T06:59:46.937Z,20.96
2023-06-24T07:02:13.850Z,21.14
2023-06-24T07:04:40.603Z,21.48
2023-06-24T07:07:07.422Z,21.53
2023-06-24T07:09:34.361Z,21.42
2023-06-24T07:12:01.584Z,21.39
2023-06-24T07:14:31.464Z,21.46
2023-06-24T07:16:58.289Z,21.58
2023-06-24T07:19:25.160Z,21.62
2023-06-24T07:21:53.004Z,21.25
2023-06-24T07:24:19.822Z,21.23
2023-06-24T07:26:46.616Z,21.48
2023-06-24T07:29:13.564Z,21.74
2023-06-24T07:31:40.927Z,21.86
2023-06-24T07:34:07.879Z,21.74
2023-06-24T07:36:34.741Z,21.86
2023-06-24T07:39:01.743Z,22.01
2023-06-24T07:41:28.810Z,21.42
2023-06-24T07:43:58.758Z,21.60
2023-06-24T07:46:29.099Z,21.87
2023-06-24T07:48:56.016Z,21.97
2023-06-24T07:51:23.069Z,21.99
2023-06-24T07:53:50.175Z,22.02
2023-06-24T07:56:17.021Z,21.93
2023-06-24T07:58:43.864Z,21.95
2023-06-24T08:01:10.769Z,21.92
2023-06-24T08:03:40.698Z,22.00
2023-06-24T08:06:07.743Z,22.07
2023-06-24T08:08:34.625Z,22.33
2023-06-24T08:11:01.417Z,22.63
2023-06-24T08:13:28.264Z,22.92
2023-06-24T08:15:58.610Z,23.00
2023-06-24T08:18:25.464Z,22.85
2023-06-24T08:20:53.173Z,22.76
2023-06-24T08:23:20.075Z,22.80
2023-06-24T08:25:46.970Z,22.69
2023-06-24T08:28:15.804Z,22.65
2023-06-24T08:30:43.176Z,22.75
2023-06-24T08:33:10.355Z,22.70
2023-06-24T08:35:37.507Z,22.89
2023-06-24T08:38:04.555Z,22.97
2023-06-24T08:40:31.749Z,23.10
2023-06-24T08:43:00.224Z,23.34
2023-06-24T08:45:27.164Z,23.52
2023-06-24T08:47:54.267Z,23.60
2023-06-24T08:50:21.601Z,23.74
2023-06-24T08:52:52.139Z,23.81
2023-06-24T08:55:23.722Z,23.93
2023-06-24T08:57:51.538Z,24.11
2023-06-24T09:00:18.715Z,24.16
2023-06-24T09:02:46.708Z,24.30
2023-06-24T09:05:13.805Z,24.24
2023-06-24T09:07:44.852Z,24.33
2023-06-24T09:10:12.059Z,24.55
2023-06-24T09:12:38.863Z,24.73
2023-06-24T09:15:06.269Z,24.80
2023-06-24T09:17:33.197Z,24.99
2023-06-24T09:20:07.383Z,25.19
2023-06-24T09:22:34.400Z,25.25
2023-06-24T09:25:02.694Z,25.33
2023-06-24T09:27:32.789Z,25.66
2023-06-24T09:29:59.718Z,25.68
2023-06-24T09:32:33.156Z,25.49
2023-06-24T09:35:03.159Z,25.69
2023-06-24T09:37:33.738Z,25.69
2023-06-24T09:40:02.687Z,25.91
2023-06-24T09:42:29.668Z,26.01
2023-06-24T09:44:57.417Z,26.23
2023-06-24T09:47:28.628Z,26.46
2023-06-24T09:49:55.653Z,26.52
2023-06-24T09:52:23.363Z,26.24
2023-06-24T09:54:53.409Z,26.56
2023-06-24T09:57:26.510Z,26.29
2023-06-24T09:59:53.608Z,26.55
2023-06-24T10:02:21.201Z,26.56
2023-06-24T10:04:48.876Z,26.30
2023-06-24T10:07:16.880Z,26.53
2023-06-24T10:09:44.856Z,26.59
2023-06-24T10:12:12.270Z,26.54
2023-06-24T10:14:39.480Z,26.45
2023-06-24T10:17:07.094Z,26.54
2023-06-24T10:19:41.092Z,26.54
2023-06-24T10:22:10.843Z,26.54
2023-06-24T10:24:43.818Z,26.73
2023-06-24T10:27:16.516Z,26.36
2023-06-24T10:29:48.255Z,26.50
2023-06-24T10:32:15.917Z,26.54
2023-06-24T10:34:47.276Z,26.81
2023-06-24T10:37:27.215Z,26.94
2023-06-24T10:40:03.832Z,27.07
2023-06-24T10:42:43.928Z,27.06
2023-06-24T10:45:10.837Z,27.17
2023-06-24T10:47:40.221Z,27.03
2023-06-24T10:50:08.409Z,27.26
2023-06-24T10:52:39.924Z,27.19
2023-06-24T10:55:08.527Z,27.27
2023-06-24T10:57:35.748Z,27.07
2023-06-24T11:00:04.588Z,27.15
2023-06-24T11:02:31.608Z,27.23
2023-06-24T11:05:02.724Z,27.35
2023-06-24T11:07:33.289Z,27.19
2023-06-24T11:10:06.808Z,27.38
2023-06-24T11:12:35.374Z,27.41
2023-06-24T11:15:04.221Z,27.55
2023-06-24T11:17:31.337Z,27.48
2023-06-24T11:19:59.791Z,27.56
2023-06-24T11:22:27.826Z,27.42
2023-06-24T11:24:57.890Z,27.53
2023-06-24T11:27:29.024Z,27.58
2023-06-24T11:29:57.409Z,27.61
2023-06-24T11:32:24.382Z,27.82
2023-06-24T11:34:52.927Z,27.48
2023-06-24T11:37:20.113Z,27.61
2023-06-24T11:40:06.262Z,27.64
2023-06-24T11:42:38.769Z,27.70
2023-06-24T11:45:12.792Z,27.75
2023-06-24T11:47:43.206Z,27.68
2023-06-24T11:50:10.837Z,27.71
2023-06-24T11:52:42.640Z,27.71
2023-06-24T11:55:28.805Z,27.75
2023-06-24T11:58:02.437Z,27.79
2023-06-24T12:00:34.319Z,27.68
2023-06-24T12:03:11.680Z,27.87
2023-06-24T12:05:41.592Z,27.64
2023-06-24T12:08:11.125Z,27.76
2023-06-24T12:10:40.600Z,27.75
2023-06-24T12:13:10.095Z,27.52
2023-06-24T12:15:37.097Z,27.63
2023-06-24T12:18:04.322Z,27.37
2023-06-24T12:20:35.028Z,27.54
2023-06-24T12:23:07.978Z,27.70
2023-06-24T12:25:35.288Z,27.75
2023-06-24T12:28:04.234Z,27.77
2023-06-24T12:30:31.235Z,27.75
2023-06-24T12:32:59.349Z,27.54
2023-06-24T12:35:26.927Z,27.37
2023-06-24T12:37:54.152Z,27.37
2023-06-24T12:40:21.336Z,27.14
2023-06-24T12:42:48.449Z,27.36
2023-06-24T12:45:15.428Z,27.28
2023-06-24T12:47:42.680Z,27.17
2023-06-24T12:50:12.683Z,27.17
2023-06-24T12:52:40.929Z,27.27
2023-06-24T12:55:09.016Z,27.14
2023-06-24T12:57:36.963Z,27.05
2023-06-24T13:00:06.963Z,27.17
2023-06-24T13:02:34.635Z,27.33
2023-06-24T13:05:01.650Z,27.22
2023-06-24T13:07:29.371Z,27.10
2023-06-24T13:09:56.234Z,26.99
2023-06-24T13:12:23.780Z,26.96
2023-06-24T13:14:50.791Z,26.94
2023-06-24T13:17:17.899Z,27.06
2023-06-24T13:19:44.717Z,26.90
2023-06-24T13:22:11.986Z,27.05
2023-06-24T13:24:39.757Z,27.01
2023-06-24T13:27:06.838Z,27.05
2023-06-24T13:29:33.794Z,26.89
2023-06-24T13:32:00.690Z,26.61
2023-06-24T13:34:27.579Z,26.72
2023-06-24T13:36:54.533Z,26.75
2023-06-24T13:39:24.947Z,26.75
2023-06-24T13:41:51.940Z,26.70
2023-06-24T13:44:18.811Z,26.59
2023-06-24T13:46:45.841Z,26.49
2023-06-24T13:49:12.945Z,26.57
2023-06-24T13:51:41.282Z,26.69
2023-06-24T13:54:08.144Z,26.69
2023-06-24T13:56:35.238Z,26.71
2023-06-24T13:59:02.110Z,26.59
2023-06-24T14:01:29.979Z,26.55
2023-06-24T14:03:57.362Z,26.52
2023-06-24T14:06:25.034Z,26.52
2023-06-24T14:08:52.654Z,26.49
2023-06-24T14:11:19.492Z,26.28
2023-06-24T14:13:47.055Z,26.34
2023-06-24T14:16:14.321Z,26.35
2023-06-24T14:18:42.490Z,26.39
2023-06-24T14:21:09.699Z,26.43
2023-06-24T14:23:37.042Z,26.42
2023-06-24T14:26:04.962Z,26.50
2023-06-24T14:28:31.990Z,26.54
2023-06-24T14:30:59.053Z,26.50
2023-06-24T14:33:26.076Z,26.50
2023-06-24T14:35:53.707Z,26.50
2023-06-24T14:38:20.738Z,26.35
2023-06-24T14:40:47.922Z,26.40
2023-06-24T14:43:14.916Z,26.51
2023-06-24T14:45:41.781Z,26.46
2023-06-24T14:48:08.812Z,26.28
2023-06-24T14:50:36.122Z,26.23
2023-06-24T14:53:03.620Z,26.27
2023-06-24T14:55:30.683Z,26.30
2023-06-24T14:57:58.018Z,26.33
2023-06-24T15:00:25.134Z,26.34
2023-06-24T15:02:52.344Z,26.35
2023-06-24T15:05:19.274Z,26.27
2023-06-24T15:07:46.048Z,26.26
2023-06-24T15:10:12.989Z,26.32
2023-06-24T15:12:41.444Z,26.23
2023-06-24T15:15:09.071Z,26.22
2023-06-24T15:17:37.568Z,26.16
2023-06-24T15:20:05.085Z,26.21
2023-06-24T15:22:32.832Z,26.11
2023-06-24T15:24:59.845Z,26.01
2023-06-24T15:27:27.353Z,25.98
2023-06-24T15:29:54.554Z,26.01
2023-06-24T15:32:21.551Z,26.02
2023-06-24T15:34:48.461Z,25.83
2023-06-24T15:37:18.810Z,25.83
2023-06-24T15:39:46.237Z,25.96
2023-06-24T15:42:13.462Z,25.91
2023-06-24T15:44:40.414Z,25.96
2023-06-24T15:47:07.777Z,25.88
2023-06-24T15:49:34.828Z,25.90
2023-06-24T15:52:01.778Z,25.99
2023-06-24T15:54:28.846Z,25.94
2023-06-24T15:56:55.812Z,25.86
2023-06-24T15:59:26.313Z,25.86
2023-06-24T16:01:55.253Z,25.88
2023-06-24T16:04:22.407Z,25.83
2023-06-24T16:06:49.316Z,25.72
2023-06-24T16:09:16.400Z,25.83
2023-06-24T16:11:43.690Z,25.84
2023-06-24T16:14:10.747Z,25.79
2023-06-24T16:16:37.621Z,25.71
2023-06-24T16:19:04.650Z,25.71
2023-06-24T16:21:31.532Z,25.72
2023-06-24T16:23:58.582Z,25.63
2023-06-24T16:26:25.475Z,25.59
2023-06-24T16:28:52.234Z,25.56
2023-06-24T16:31:19.329Z,25.47
2023-06-24T16:33:46.224Z,25.52
2023-06-24T16:36:13.224Z,25.44
2023-06-24T16:38:40.269Z,25.47
2023-06-24T16:41:07.144Z,25.52
2023-06-24T16:43:33.948Z,25.45
2023-06-24T16:46:01.050Z,25.45
2023-06-24T16:48:28.009Z,25.44
2023-06-24T16:50:54.878Z,25.44
2023-06-24T16:53:22.265Z,25.46
2023-06-24T16:55:50.205Z,25.33
2023-06-24T16:58:17.170Z,25.34
2023-06-24T17:00:45.720Z,25.40
2023-06-24T17:03:12.662Z,25.30
2023-06-24T17:05:41.336Z,25.32
2023-06-24T17:08:08.508Z,25.30
2023-06-24T17:10:36.593Z,25.30
2023-06-24T17:13:03.923Z,25.26
2023-06-24T17:15:31.247Z,25.24
2023-06-24T17:17:58.055Z,25.07
2023-06-24T17:20:25.064Z,25.16
2023-06-24T17:22:52.053Z,25.07
2023-06-24T17:25:18.968Z,25.08
2023-06-24T17:27:45.912Z,25.09
2023-06-24T17:30:13.045Z,25.08
2023-06-24T17:32:40.446Z,24.89
2023-06-24T17:35:07.661Z,24.95
2023-06-24T17:37:35.246Z,25.01
2023-06-24T17:40:04.571Z,25.00
2023-06-24T17:42:31.585Z,24.86
2023-06-24T17:44:58.518Z,24.92
2023-06-24T17:47:25.462Z,24.96
2023-06-24T17:49:52.393Z,24.91
2023-06-24T17:52:19.298Z,24.95
2023-06-24T17:54:46.232Z,24.87
2023-06-24T17:57:13.569Z,24.84
2023-06-24T17:59:40.385Z,24.66
2023-06-24T18:02:07.464Z,24.70
2023-06-24T18:04:34.397Z,24.74
2023-06-24T18:07:01.369Z,24.74
2023-06-24T18:09:28.235Z,24.78
2023-06-24T18:11:55.166Z,24.69
2023-06-24T18:14:22.113Z,24.73
2023-06-24T18:16:53.447Z,24.64
2023-06-24T18:19:21.339Z,24.57
2023-06-24T18:21:48.289Z,24.66
2023-06-24T18:24:15.097Z,24.66
2023-06-24T18:26:41.984Z,24.58
2023-06-24T18:29:09.302Z,24.54
2023-06-24T18:31:38.240Z,24.56
2023-06-24T18:34:05.082Z,24.53
2023-06-24T18:36:31.946Z,24.45
2023-06-24T18:38:58.986Z,24.43
2023-06-24T18:41:25.792Z,24.39
2023-06-24T18:43:54.364Z,24.34
2023-06-24T18:46:21.348Z,24.35
2023-06-24T18:48:48.595Z,24.30
2023-06-24T18:51:15.671Z,24.25
2023-06-24T18:53:42.546Z,24.21
2023-06-24T18:56:09.358Z,24.17
2023-06-24T18:58:37.742Z,24.14
2023-06-24T19:01:04.616Z,24.08
2023-06-24T19:03:31.858Z,24.01
2023-06-24T19:05:59.204Z,23.92
2023-06-24T19:08:26.343Z,23.88
2023-06-24T19:10:53.214Z,23.82
2023-06-24T19:13:20.346Z,23.78
2023-06-24T19:15:47.842Z,23.72
2023-06-24T19:18:14.795Z,23.63
2023-06-24T19:20:42.483Z,23.54
2023-06-24T19:23:09.910Z,23.52
2023-06-24T19:25:37.087Z,23.43
2023-06-24T19:28:04.382Z,23.37
2023-06-24T19:30:31.313Z,23.30
2023-06-24T19:32:58.297Z,23.24
2023-06-24T19:35:25.216Z,23.19
2023-06-24T19:37:52.185Z,23.11
2023-06-24T19:40:21.111Z,23.08
2023-06-24T19:42:48.005Z,23.01
2023-06-24T19:45:14.905Z,22.96
2023-06-24T19:47:41.853Z,22.91
2023-06-24T19:50:10.626Z,22.86
2023-06-24T19:52:37.578Z,22.76
2023-06-24T19:55:04.840Z,22.71
2023-06-24T19:57:33.730Z,22.62
2023-06-24T20:00:00.830Z,22.56
2023-06-24T20:02:28.082Z,22.51
2023-06-24T20:04:55.017Z,22.46
2023-06-24T20:07:22.018Z,22.43
2023-06-24T20:09:49.774Z,22.38
2023-06-24T20:12:16.713Z,22.26
2023-06-24T20:14:44.039Z,22.22
2023-06-24T20:17:11.174Z,22.18
2023-06-24T20:19:37.988Z,22.11
2023-06-24T20:22:05.452Z,22.08
2023-06-24T20:24:32.508Z,22.02
2023-06-24T20:27:02.002Z,22.02
2023-06-24T20:29:29.006Z,22.01
2023-06-24T20:31:56.282Z,21.97
2023-06-24T20:34:23.319Z,21.91
2023-06-24T20:36:50.268Z,21.84
2023-06-24T20:39:17.517Z,21.77
2023-06-24T20:41:45.006Z,21.72
2023-06-24T20:44:12.795Z,21.62
2023-06-24T20:46:39.823Z,21.60
2023-06-24T20:49:06.722Z,21.59
2023-06-24T20:51:33.576Z,21.54
2023-06-24T20:54:00.478Z,21.52
2023-06-24T20:56:30.416Z,21.47
2023-06-24T20:58:57.242Z,21.47
2023-06-24T21:01:24.151Z,21.43
2023-06-24T21:03:51.218Z,21.39
2023-06-24T21:06:21.327Z,21.30
2023-06-24T21:08:48.327Z,21.26
2023-06-24T21:11:15.184Z,21.23
2023-06-24T21:13:42.015Z,21.21
2023-06-24T21:16:11.957Z,21.16
2023-06-24T21:18:38.824Z,21.15
2023-06-24T21:21:05.606Z,21.11
2023-06-24T21:23:32.459Z,21.12
2023-06-24T21:25:59.869Z,21.08
2023-06-24T21:28:26.739Z,21.01
2023-06-24T21:30:53.873Z,21.01
2023-06-24T21:33:20.745Z,20.98
2023-06-24T21:35:59.986Z,20.94
2023-06-24T21:38:28.392Z,20.93
2023-06-24T21:40:55.381Z,20.89
2023-06-24T21:43:22.457Z,20.82
2023-06-24T21:45:49.489Z,20.81
2023-06-24T21:48:16.352Z,20.80
2023-06-24T21:50:43.305Z,20.77
2023-06-24T21:53:10.354Z,20.76
2023-06-24T21:55:37.820Z,20.73
2023-06-24T21:58:04.613Z,20.74
2023-06-24T22:00:33.681Z,20.69
2023-06-24T22:03:00.700Z,20.66
2023-06-24T22:05:34.933Z,20.64
2023-06-24T22:08:06.016Z,20.62
2023-06-24T22:10:32.936Z,20.58
2023-06-24T22:13:00.411Z,20.54
2023-06-24T22:15:27.408Z,20.54
2023-06-24T22:17:54.994Z,20.51
2023-06-24T22:20:21.912Z,20.45
2023-06-24T22:22:48.855Z,20.45
2023-06-24T22:25:15.783Z,20.43
2023-06-24T22:27:43.114Z,20.40
2023-06-24T22:30:10.527Z,20.43
2023-06-24T22:32:37.626Z,20.38
2023-06-24T22:35:05.039Z,20.34
2023-06-24T22:37:32.201Z,20.33
2023-06-24T22:39:59.383Z,20.32
2023-06-24T22:42:26.168Z,20.30
2023-06-24T22:44:53.268Z,20.26
2023-06-24T22:47:20.265Z,20.24
2023-06-24T22:49:47.208Z,20.20
2023-06-24T22:52:14.114Z,20.19
2023-06-24T22:54:40.909Z,20.17
2023-06-24T22:57:07.888Z,20.16
2023-06-24T22:59:34.693Z,20.14
2023-06-24T23:02:02.041Z,20.10
2023-06-24T23:04:29.215Z,20.07
2023-06-24T23:06:56.855Z,20.08
2023-06-24T23:09:24.254Z,20.06
2023-06-24T23:11:53.120Z,20.06
2023-06-24T23:14:22.998Z,20.05
2023-06-24T23:16:51.187Z,20.06
2023-06-24T23:19:18.349Z,20.03
2023-06-24T23:21:45.268Z,20.01
2023-06-24T23:24:15.197Z,20.00
2023-06-24T23:26:51.876Z,19.97
2023-06-24T23:29:22.298Z,19.98
2023-06-24T23:31:49.796Z,19.94
2023-06-24T23:34:18.624Z,19.90
2023-06-24T23:36:46.281Z,19.85
2023-06-24T23:39:14.195Z,19.86
2023-06-24T23:41:41.093Z,19.81
2023-06-24T23:44:08.298Z,19.78
2023-06-24T23:46:35.879Z,19.79
2023-06-24T23:49:02.747Z,19.79
2023-06-24T23:51:29.520Z,19.75
2023-06-24T23:53:56.552Z,19.72
2023-06-24T23:56:23.374Z,19.72
2023-06-24T23:58:50.227Z,19.72
